sensor_id;sensor_type;location;lat;lon;timestamp;P1;durP1;ratioP1;P2;durP2;ratioP2
11743;SDS011;5929;51.906;7.674;2023-02-01T00:00:25;25.10;;;4.15;;
11743;SDS011;5929;51.906;7.674;2023-02-01T00:02:51;22.08;;;3.80;;
11743;SDS011;5929;51.906;7.674;2023-02-01T00:05:18;24.85;;;5.07;;
11743;SDS011;5929;51.906;7.674;2023-02-01T00:07:46;26.15;;;4.38;;
11743;SDS011;5929;51.906;7.674;2023-02-01T00:10:14;20.23;;;4.38;;
11743;SDS011;5929;51.906;7.674;2023-02-01T00:12:41;20.10;;;4.45;;
11743;SDS011;5929;51.906;7.674;2023-02-01T00:15:09;18.63;;;4.93;;
11743;SDS011;5929;51.906;7.674;2023-02-01T00:17:36;21.90;;;4.60;;
11743;SDS011;5929;51.906;7.674;2023-02-01T00:20:03;25.02;;;4.30;;
11743;SDS011;5929;51.906;7.674;2023-02-01T00:22:31;17.48;;;4.55;;
11743;SDS011;5929;51.906;7.674;2023-02-01T00:24:58;20.13;;;4.25;;
11743;SDS011;5929;51.906;7.674;2023-02-01T00:27:27;23.77;;;4.75;;
11743;SDS011;5929;51.906;7.674;2023-02-01T00:29:54;19.48;;;4.93;;
11743;SDS011;5929;51.906;7.674;2023-02-01T00:32:22;27.52;;;5.20;;
11743;SDS011;5929;51.906;7.674;2023-02-01T00:34:49;29.55;;;5.30;;
11743;SDS011;5929;51.906;7.674;2023-02-01T00:37:15;21.30;;;4.38;;
11743;SDS011;5929;51.906;7.674;2023-02-01T00:39:42;20.15;;;4.82;;
11743;SDS011;5929;51.906;7.674;2023-02-01T00:42:09;24.40;;;5.68;;
11743;SDS011;5929;51.906;7.674;2023-02-01T00:44:36;26.52;;;6.05;;
11743;SDS011;5929;51.906;7.674;2023-02-01T00:47:03;21.85;;;4.88;;
11743;SDS011;5929;51.906;7.674;2023-02-01T00:49:31;19.65;;;4.75;;
11743;SDS011;5929;51.906;7.674;2023-02-01T00:51:58;26.25;;;5.95;;
11743;SDS011;5929;51.906;7.674;2023-02-01T00:54:24;22.65;;;4.60;;
11743;SDS011;5929;51.906;7.674;2023-02-01T00:56:51;22.67;;;5.03;;
11743;SDS011;5929;51.906;7.674;2023-02-01T00:59:18;24.55;;;4.72;;
11743;SDS011;5929;51.906;7.674;2023-02-01T01:01:45;29.00;;;5.63;;
11743;SDS011;5929;51.906;7.674;2023-02-01T01:04:11;19.38;;;4.68;;
11743;SDS011;5929;51.906;7.674;2023-02-01T01:06:40;26.17;;;5.18;;
11743;SDS011;5929;51.906;7.674;2023-02-01T01:09:07;23.85;;;5.72;;
11743;SDS011;5929;51.906;7.674;2023-02-01T01:11:35;28.63;;;4.63;;
11743;SDS011;5929;51.906;7.674;2023-02-01T01:14:03;29.10;;;5.18;;
11743;SDS011;5929;51.906;7.674;2023-02-01T01:16:31;21.02;;;5.40;;
11743;SDS011;5929;51.906;7.674;2023-02-01T01:18:58;18.50;;;4.53;;
11743;SDS011;5929;51.906;7.674;2023-02-01T01:21:26;16.80;;;4.13;;
11743;SDS011;5929;51.906;7.674;2023-02-01T01:23:54;28.58;;;4.90;;
11743;SDS011;5929;51.906;7.674;2023-02-01T01:26:22;14.57;;;4.55;;
11743;SDS011;5929;51.906;7.674;2023-02-01T01:28:50;21.98;;;5.15;;
11743;SDS011;5929;51.906;7.674;2023-02-01T01:31:18;22.63;;;5.10;;
11743;SDS011;5929;51.906;7.674;2023-02-01T01:33:50;18.80;;;4.22;;
11743;SDS011;5929;51.906;7.674;2023-02-01T01:36:18;21.45;;;4.97;;
11743;SDS011;5929;51.906;7.674;2023-02-01T01:38:45;16.80;;;4.47;;
11743;SDS011;5929;51.906;7.674;2023-02-01T01:41:15;12.85;;;4.60;;
11743;SDS011;5929;51.906;7.674;2023-02-01T01:43:47;17.88;;;4.30;;
11743;SDS011;5929;51.906;7.674;2023-02-01T01:46:16;18.00;;;4.38;;
11743;SDS011;5929;51.906;7.674;2023-02-01T01:48:44;18.52;;;4.93;;
11743;SDS011;5929;51.906;7.674;2023-02-01T01:51:14;21.90;;;5.13;;
11743;SDS011;5929;51.906;7.674;2023-02-01T01:53:45;25.90;;;5.32;;
11743;SDS011;5929;51.906;7.674;2023-02-01T01:56:16;27.85;;;4.53;;
11743;SDS011;5929;51.906;7.674;2023-02-01T01:58:43;23.52;;;4.45;;
11743;SDS011;5929;51.906;7.674;2023-02-01T02:01:10;18.95;;;3.72;;
11743;SDS011;5929;51.906;7.674;2023-02-01T02:03:37;18.73;;;3.65;;
11743;SDS011;5929;51.906;7.674;2023-02-01T02:06:10;21.38;;;4.38;;
11743;SDS011;5929;51.906;7.674;2023-02-01T02:08:43;22.48;;;4.45;;
11743;SDS011;5929;51.906;7.674;2023-02-01T02:11:11;15.43;;;3.70;;
11743;SDS011;5929;51.906;7.674;2023-02-01T02:13:42;13.73;;;3.33;;
11743;SDS011;5929;51.906;7.674;2023-02-01T02:16:24;18.08;;;4.30;;
11743;SDS011;5929;51.906;7.674;2023-02-01T02:19:22;22.52;;;4.20;;
11743;SDS011;5929;51.906;7.674;2023-02-01T02:25:26;23.60;;;4.05;;
11743;SDS011;5929;51.906;7.674;2023-02-01T02:28:15;21.75;;;3.72;;
11743;SDS011;5929;51.906;7.674;2023-02-01T02:31:07;17.73;;;3.75;;
11743;SDS011;5929;51.906;7.674;2023-02-01T02:33:56;18.02;;;3.53;;
11743;SDS011;5929;51.906;7.674;2023-02-01T02:36:30;18.70;;;4.00;;
11743;SDS011;5929;51.906;7.674;2023-02-01T02:39:06;15.52;;;3.83;;
11743;SDS011;5929;51.906;7.674;2023-02-01T02:41:40;14.75;;;2.80;;
11743;SDS011;5929;51.906;7.674;2023-02-01T02:44:33;18.08;;;4.57;;
11743;SDS011;5929;51.906;7.674;2023-02-01T02:47:30;23.85;;;3.92;;
11743;SDS011;5929;51.906;7.674;2023-02-01T02:50:11;15.30;;;3.15;;
11743;SDS011;5929;51.906;7.674;2023-02-01T02:53:02;23.42;;;3.97;;
11743;SDS011;5929;51.906;7.674;2023-02-01T02:55:49;17.90;;;3.38;;
11743;SDS011;5929;51.906;7.674;2023-02-01T02:58:31;28.27;;;4.55;;
11743;SDS011;5929;51.906;7.674;2023-02-01T03:01:16;18.02;;;3.83;;
11743;SDS011;5929;51.906;7.674;2023-02-01T03:04:00;18.10;;;3.75;;
11743;SDS011;5929;51.906;7.674;2023-02-01T03:06:35;19.20;;;3.42;;
11743;SDS011;5929;51.906;7.674;2023-02-01T03:09:06;21.02;;;4.47;;
11743;SDS011;5929;51.906;7.674;2023-02-01T03:11:39;19.67;;;4.20;;
11743;SDS011;5929;51.906;7.674;2023-02-01T03:14:28;19.05;;;4.10;;
11743;SDS011;5929;51.906;7.674;2023-02-01T03:16:57;31.25;;;4.47;;
11743;SDS011;5929;51.906;7.674;2023-02-01T03:19:31;15.82;;;3.63;;
11743;SDS011;5929;51.906;7.674;2023-02-01T03:22:03;17.65;;;3.95;;
11743;SDS011;5929;51.906;7.674;2023-02-01T03:24:34;24.38;;;3.83;;
11743;SDS011;5929;51.906;7.674;2023-02-01T03:27:05;20.20;;;3.60;;
11743;SDS011;5929;51.906;7.674;2023-02-01T03:29:40;24.23;;;3.60;;
11743;SDS011;5929;51.906;7.674;2023-02-01T03:32:11;21.27;;;3.83;;
11743;SDS011;5929;51.906;7.674;2023-02-01T03:34:39;16.88;;;3.63;;
11743;SDS011;5929;51.906;7.674;2023-02-01T03:37:09;21.73;;;4.85;;
11743;SDS011;5929;51.906;7.674;2023-02-01T03:39:39;13.98;;;3.08;;
11743;SDS011;5929;51.906;7.674;2023-02-01T03:42:11;16.63;;;3.45;;
11743;SDS011;5929;51.906;7.674;2023-02-01T03:44:44;22.58;;;4.05;;
11743;SDS011;5929;51.906;7.674;2023-02-01T03:47:16;22.35;;;3.55;;
11743;SDS011;5929;51.906;7.674;2023-02-01T03:49:46;25.70;;;4.00;;
11743;SDS011;5929;51.906;7.674;2023-02-01T03:52:18;15.05;;;3.88;;
11743;SDS011;5929;51.906;7.674;2023-02-01T03:54:51;19.60;;;3.60;;
11743;SDS011;5929;51.906;7.674;2023-02-01T03:57:20;18.38;;;3.72;;
11743;SDS011;5929;51.906;7.674;2023-02-01T03:59:54;15.65;;;3.67;;
11743;SDS011;5929;51.906;7.674;2023-02-01T04:02:32;24.02;;;3.90;;
11743;SDS011;5929;51.906;7.674;2023-02-01T04:05:02;16.85;;;3.75;;
11743;SDS011;5929;51.906;7.674;2023-02-01T04:07:30;22.70;;;4.07;;
11743;SDS011;5929;51.906;7.674;2023-02-01T04:09:57;20.85;;;3.75;;
11743;SDS011;5929;51.906;7.674;2023-02-01T04:12:24;20.40;;;4.28;;
11743;SDS011;5929;51.906;7.674;2023-02-01T04:14:52;19.33;;;3.25;;
11743;SDS011;5929;51.906;7.674;2023-02-01T04:17:18;20.70;;;4.00;;
11743;SDS011;5929;51.906;7.674;2023-02-01T04:19:45;21.55;;;3.85;;
11743;SDS011;5929;51.906;7.674;2023-02-01T04:22:12;17.00;;;3.80;;
11743;SDS011;5929;51.906;7.674;2023-02-01T04:24:40;17.67;;;3.95;;
11743;SDS011;5929;51.906;7.674;2023-02-01T04:27:07;19.23;;;4.57;;
11743;SDS011;5929;51.906;7.674;2023-02-01T04:29:34;25.08;;;4.68;;
11743;SDS011;5929;51.906;7.674;2023-02-01T04:32:00;20.08;;;4.53;;
11743;SDS011;5929;51.906;7.674;2023-02-01T04:34:29;19.25;;;3.45;;
11743;SDS011;5929;51.906;7.674;2023-02-01T04:36:56;26.55;;;4.47;;
11743;SDS011;5929;51.906;7.674;2023-02-01T04:39:26;20.08;;;3.65;;
11743;SDS011;5929;51.906;7.674;2023-02-01T04:41:54;21.73;;;4.40;;
11743;SDS011;5929;51.906;7.674;2023-02-01T04:44:21;20.10;;;4.00;;
11743;SDS011;5929;51.906;7.674;2023-02-01T04:46:48;18.52;;;4.18;;
11743;SDS011;5929;51.906;7.674;2023-02-01T04:49:15;20.92;;;4.07;;
11743;SDS011;5929;51.906;7.674;2023-02-01T04:51:42;25.25;;;4.22;;
11743;SDS011;5929;51.906;7.674;2023-02-01T04:54:09;22.00;;;3.95;;
11743;SDS011;5929;51.906;7.674;2023-02-01T04:56:39;22.10;;;4.40;;
11743;SDS011;5929;51.906;7.674;2023-02-01T04:59:09;18.95;;;3.75;;
11743;SDS011;5929;51.906;7.674;2023-02-01T05:01:36;20.85;;;3.75;;
11743;SDS011;5929;51.906;7.674;2023-02-01T05:04:03;18.17;;;3.95;;
11743;SDS011;5929;51.906;7.674;2023-02-01T05:06:30;18.45;;;3.72;;
11743;SDS011;5929;51.906;7.674;2023-02-01T05:08:57;19.20;;;3.38;;
11743;SDS011;5929;51.906;7.674;2023-02-01T05:11:24;17.20;;;3.38;;
11743;SDS011;5929;51.906;7.674;2023-02-01T05:14:09;24.02;;;3.97;;
11743;SDS011;5929;51.906;7.674;2023-02-01T05:16:36;18.42;;;4.07;;
11743;SDS011;5929;51.906;7.674;2023-02-01T05:19:03;24.13;;;4.35;;
11743;SDS011;5929;51.906;7.674;2023-02-01T05:21:30;26.00;;;4.32;;
11743;SDS011;5929;51.906;7.674;2023-02-01T05:23:57;18.45;;;3.20;;
11743;SDS011;5929;51.906;7.674;2023-02-01T05:26:37;22.58;;;4.00;;
11743;SDS011;5929;51.906;7.674;2023-02-01T05:29:05;19.73;;;4.47;;
11743;SDS011;5929;51.906;7.674;2023-02-01T05:31:34;20.20;;;4.20;;
11743;SDS011;5929;51.906;7.674;2023-02-01T05:34:01;21.67;;;3.63;;
11743;SDS011;5929;51.906;7.674;2023-02-01T05:36:28;22.55;;;4.07;;
11743;SDS011;5929;51.906;7.674;2023-02-01T05:38:55;21.45;;;4.53;;
11743;SDS011;5929;51.906;7.674;2023-02-01T05:41:21;22.13;;;3.83;;
11743;SDS011;5929;51.906;7.674;2023-02-01T05:43:48;20.67;;;4.03;;
11743;SDS011;5929;51.906;7.674;2023-02-01T05:46:15;18.10;;;3.63;;
11743;SDS011;5929;51.906;7.674;2023-02-01T05:48:43;20.77;;;4.47;;
11743;SDS011;5929;51.906;7.674;2023-02-01T05:51:10;25.73;;;5.32;;
11743;SDS011;5929;51.906;7.674;2023-02-01T05:53:37;19.50;;;4.13;;
11743;SDS011;5929;51.906;7.674;2023-02-01T05:56:05;22.65;;;3.90;;
11743;SDS011;5929;51.906;7.674;2023-02-01T05:58:32;26.42;;;4.78;;
11743;SDS011;5929;51.906;7.674;2023-02-01T06:00:59;22.65;;;4.35;;
11743;SDS011;5929;51.906;7.674;2023-02-01T06:03:27;13.57;;;3.40;;
11743;SDS011;5929;51.906;7.674;2023-02-01T06:05:56;23.35;;;4.63;;
11743;SDS011;5929;51.906;7.674;2023-02-01T06:08:22;19.33;;;4.22;;
11743;SDS011;5929;51.906;7.674;2023-02-01T06:10:50;23.10;;;4.57;;
11743;SDS011;5929;51.906;7.674;2023-02-01T06:13:18;23.27;;;3.55;;
11743;SDS011;5929;51.906;7.674;2023-02-01T06:15:45;26.40;;;5.05;;
11743;SDS011;5929;51.906;7.674;2023-02-01T06:18:12;16.63;;;4.18;;
11743;SDS011;5929;51.906;7.674;2023-02-01T06:20:40;24.58;;;4.88;;
11743;SDS011;5929;51.906;7.674;2023-02-01T06:23:08;18.45;;;3.40;;
11743;SDS011;5929;51.906;7.674;2023-02-01T06:25:35;22.58;;;4.10;;
11743;SDS011;5929;51.906;7.674;2023-02-01T06:28:02;24.35;;;5.15;;
11743;SDS011;5929;51.906;7.674;2023-02-01T06:30:30;24.75;;;4.63;;
11743;SDS011;5929;51.906;7.674;2023-02-01T06:32:57;18.40;;;4.10;;
11743;SDS011;5929;51.906;7.674;2023-02-01T06:35:24;18.52;;;4.18;;
11743;SDS011;5929;51.906;7.674;2023-02-01T06:37:51;22.67;;;4.80;;
11743;SDS011;5929;51.906;7.674;2023-02-01T06:40:24;16.73;;;3.45;;
11743;SDS011;5929;51.906;7.674;2023-02-01T06:42:51;24.10;;;5.60;;
11743;SDS011;5929;51.906;7.674;2023-02-01T06:45:18;21.77;;;3.83;;
11743;SDS011;5929;51.906;7.674;2023-02-01T06:47:45;23.98;;;4.80;;
11743;SDS011;5929;51.906;7.674;2023-02-01T06:50:14;18.40;;;4.00;;
11743;SDS011;5929;51.906;7.674;2023-02-01T06:52:42;24.80;;;4.07;;
11743;SDS011;5929;51.906;7.674;2023-02-01T06:55:09;21.85;;;4.40;;
11743;SDS011;5929;51.906;7.674;2023-02-01T06:57:37;19.98;;;4.10;;
11743;SDS011;5929;51.906;7.674;2023-02-01T07:00:04;23.52;;;4.05;;
11743;SDS011;5929;51.906;7.674;2023-02-01T07:02:32;18.42;;;3.85;;
11743;SDS011;5929;51.906;7.674;2023-02-01T07:04:59;23.23;;;4.35;;
11743;SDS011;5929;51.906;7.674;2023-02-01T07:07:27;24.65;;;4.30;;
11743;SDS011;5929;51.906;7.674;2023-02-01T07:09:56;18.98;;;4.20;;
11743;SDS011;5929;51.906;7.674;2023-02-01T07:12:23;24.17;;;4.38;;
11743;SDS011;5929;51.906;7.674;2023-02-01T07:14:54;26.60;;;4.78;;
11743;SDS011;5929;51.906;7.674;2023-02-01T07:17:21;25.77;;;4.30;;
11743;SDS011;5929;51.906;7.674;2023-02-01T07:19:50;18.90;;;4.28;;
11743;SDS011;5929;51.906;7.674;2023-02-01T07:22:20;16.85;;;3.53;;
11743;SDS011;5929;51.906;7.674;2023-02-01T07:24:46;20.23;;;3.88;;
11743;SDS011;5929;51.906;7.674;2023-02-01T07:27:14;24.88;;;4.68;;
11743;SDS011;5929;51.906;7.674;2023-02-01T07:29:40;27.13;;;4.05;;
11743;SDS011;5929;51.906;7.674;2023-02-01T07:32:09;18.10;;;4.55;;
11743;SDS011;5929;51.906;7.674;2023-02-01T07:34:35;23.90;;;4.20;;
11743;SDS011;5929;51.906;7.674;2023-02-01T07:37:04;26.33;;;4.72;;
11743;SDS011;5929;51.906;7.674;2023-02-01T07:39:31;22.48;;;4.72;;
11743;SDS011;5929;51.906;7.674;2023-02-01T07:41:58;23.30;;;3.65;;
11743;SDS011;5929;51.906;7.674;2023-02-01T07:44:25;22.27;;;4.20;;
11743;SDS011;5929;51.906;7.674;2023-02-01T07:46:52;16.08;;;3.78;;
11743;SDS011;5929;51.906;7.674;2023-02-01T07:49:20;21.00;;;4.68;;
11743;SDS011;5929;51.906;7.674;2023-02-01T07:51:47;25.35;;;4.55;;
11743;SDS011;5929;51.906;7.674;2023-02-01T07:54:13;22.50;;;5.45;;
11743;SDS011;5929;51.906;7.674;2023-02-01T07:56:40;18.52;;;4.50;;
11743;SDS011;5929;51.906;7.674;2023-02-01T07:59:07;23.17;;;4.18;;
11743;SDS011;5929;51.906;7.674;2023-02-01T08:01:34;21.17;;;4.75;;
11743;SDS011;5929;51.906;7.674;2023-02-01T08:04:01;21.83;;;3.90;;
11743;SDS011;5929;51.906;7.674;2023-02-01T08:06:31;22.27;;;4.53;;
11743;SDS011;5929;51.906;7.674;2023-02-01T08:08:59;23.80;;;4.35;;
11743;SDS011;5929;51.906;7.674;2023-02-01T08:11:27;20.80;;;4.20;;
11743;SDS011;5929;51.906;7.674;2023-02-01T08:13:53;20.63;;;4.50;;
11743;SDS011;5929;51.906;7.674;2023-02-01T08:16:21;21.92;;;4.53;;
11743;SDS011;5929;51.906;7.674;2023-02-01T08:18:48;21.73;;;3.80;;
11743;SDS011;5929;51.906;7.674;2023-02-01T08:21:16;23.00;;;4.22;;
11743;SDS011;5929;51.906;7.674;2023-02-01T08:23:46;21.05;;;4.78;;
11743;SDS011;5929;51.906;7.674;2023-02-01T08:26:13;26.17;;;5.07;;
11743;SDS011;5929;51.906;7.674;2023-02-01T08:28:42;17.88;;;4.90;;
11743;SDS011;5929;51.906;7.674;2023-02-01T08:31:11;19.58;;;4.75;;
11743;SDS011;5929;51.906;7.674;2023-02-01T08:33:40;19.48;;;4.22;;
11743;SDS011;5929;51.906;7.674;2023-02-01T08:36:10;17.38;;;3.92;;
11743;SDS011;5929;51.906;7.674;2023-02-01T08:38:37;24.95;;;4.00;;
11743;SDS011;5929;51.906;7.674;2023-02-01T08:41:09;21.00;;;4.28;;
11743;SDS011;5929;51.906;7.674;2023-02-01T08:43:37;23.42;;;4.25;;
11743;SDS011;5929;51.906;7.674;2023-02-01T08:46:04;14.95;;;3.63;;
11743;SDS011;5929;51.906;7.674;2023-02-01T08:48:32;23.55;;;4.57;;
11743;SDS011;5929;51.906;7.674;2023-02-01T08:51:00;21.88;;;4.18;;
11743;SDS011;5929;51.906;7.674;2023-02-01T08:53:28;19.10;;;4.30;;
11743;SDS011;5929;51.906;7.674;2023-02-01T08:55:55;19.55;;;4.57;;
11743;SDS011;5929;51.906;7.674;2023-02-01T08:58:23;29.88;;;4.85;;
11743;SDS011;5929;51.906;7.674;2023-02-01T09:00:53;20.40;;;4.30;;
11743;SDS011;5929;51.906;7.674;2023-02-01T09:03:22;21.75;;;4.35;;
11743;SDS011;5929;51.906;7.674;2023-02-01T09:05:49;25.98;;;4.88;;
11743;SDS011;5929;51.906;7.674;2023-02-01T09:08:15;21.90;;;4.47;;
11743;SDS011;5929;51.906;7.674;2023-02-01T09:10:43;24.13;;;4.75;;
11743;SDS011;5929;51.906;7.674;2023-02-01T09:13:10;18.08;;;4.57;;
11743;SDS011;5929;51.906;7.674;2023-02-01T09:15:41;19.42;;;4.60;;
11743;SDS011;5929;51.906;7.674;2023-02-01T09:18:08;17.65;;;4.28;;
11743;SDS011;5929;51.906;7.674;2023-02-01T09:20:36;28.92;;;4.43;;
11743;SDS011;5929;51.906;7.674;2023-02-01T09:23:03;24.27;;;4.95;;
11743;SDS011;5929;51.906;7.674;2023-02-01T09:25:31;25.63;;;4.63;;
11743;SDS011;5929;51.906;7.674;2023-02-01T09:27:58;28.05;;;4.07;;
11743;SDS011;5929;51.906;7.674;2023-02-01T09:30:27;20.88;;;4.22;;
11743;SDS011;5929;51.906;7.674;2023-02-01T09:32:55;20.92;;;3.88;;
11743;SDS011;5929;51.906;7.674;2023-02-01T09:35:22;18.75;;;4.05;;
11743;SDS011;5929;51.906;7.674;2023-02-01T09:37:49;14.70;;;3.25;;
11743;SDS011;5929;51.906;7.674;2023-02-01T09:40:16;24.73;;;4.10;;
11743;SDS011;5929;51.906;7.674;2023-02-01T09:42:52;23.80;;;4.07;;
11743;SDS011;5929;51.906;7.674;2023-02-01T09:45:29;17.75;;;4.13;;
11743;SDS011;5929;51.906;7.674;2023-02-01T09:48:08;21.38;;;4.53;;
11743;SDS011;5929;51.906;7.674;2023-02-01T09:50:37;23.17;;;4.05;;
11743;SDS011;5929;51.906;7.674;2023-02-01T09:53:10;20.75;;;4.75;;
11743;SDS011;5929;51.906;7.674;2023-02-01T09:55:42;28.67;;;5.25;;
11743;SDS011;5929;51.906;7.674;2023-02-01T09:58:13;23.48;;;4.15;;
11743;SDS011;5929;51.906;7.674;2023-02-01T10:00:47;28.85;;;4.70;;
11743;SDS011;5929;51.906;7.674;2023-02-01T10:03:19;21.23;;;4.05;;
11743;SDS011;5929;51.906;7.674;2023-02-01T10:05:54;23.55;;;4.07;;
11743;SDS011;5929;51.906;7.674;2023-02-01T10:08:33;11.55;;;3.55;;
11743;SDS011;5929;51.906;7.674;2023-02-01T10:11:19;19.55;;;4.75;;
11743;SDS011;5929;51.906;7.674;2023-02-01T10:13:54;14.75;;;3.72;;
11743;SDS011;5929;51.906;7.674;2023-02-01T10:16:33;17.63;;;3.78;;
11743;SDS011;5929;51.906;7.674;2023-02-01T10:22:05;23.25;;;4.38;;
11743;SDS011;5929;51.906;7.674;2023-02-01T10:24:39;20.63;;;4.18;;
11743;SDS011;5929;51.906;7.674;2023-02-01T10:27:11;15.10;;;3.50;;
11743;SDS011;5929;51.906;7.674;2023-02-01T10:29:41;19.33;;;4.57;;
11743;SDS011;5929;51.906;7.674;2023-02-01T10:32:12;19.90;;;3.97;;
11743;SDS011;5929;51.906;7.674;2023-02-01T10:34:42;21.88;;;4.47;;
11743;SDS011;5929;51.906;7.674;2023-02-01T10:37:18;16.10;;;3.85;;
11743;SDS011;5929;51.906;7.674;2023-02-01T10:39:52;28.60;;;4.22;;
11743;SDS011;5929;51.906;7.674;2023-02-01T10:42:21;17.05;;;4.00;;
11743;SDS011;5929;51.906;7.674;2023-02-01T10:44:51;16.35;;;4.03;;
11743;SDS011;5929;51.906;7.674;2023-02-01T10:47:22;22.13;;;3.63;;
11743;SDS011;5929;51.906;7.674;2023-02-01T10:49:52;35.55;;;6.18;;
11743;SDS011;5929;51.906;7.674;2023-02-01T10:52:28;26.27;;;4.38;;
11743;SDS011;5929;51.906;7.674;2023-02-01T10:57:55;17.08;;;4.65;;
11743;SDS011;5929;51.906;7.674;2023-02-01T11:00:23;20.92;;;4.15;;
11743;SDS011;5929;51.906;7.674;2023-02-01T11:02:50;21.70;;;4.40;;
11743;SDS011;5929;51.906;7.674;2023-02-01T11:05:19;30.33;;;5.68;;
11743;SDS011;5929;51.906;7.674;2023-02-01T11:07:48;28.08;;;4.45;;
11743;SDS011;5929;51.906;7.674;2023-02-01T11:10:35;28.13;;;6.05;;
11743;SDS011;5929;51.906;7.674;2023-02-01T11:13:03;20.38;;;4.30;;
11743;SDS011;5929;51.906;7.674;2023-02-01T11:15:31;17.85;;;4.38;;
11743;SDS011;5929;51.906;7.674;2023-02-01T11:17:58;16.40;;;4.13;;
11743;SDS011;5929;51.906;7.674;2023-02-01T11:20:42;16.00;;;3.90;;
11743;SDS011;5929;51.906;7.674;2023-02-01T11:23:14;20.80;;;4.57;;
11743;SDS011;5929;51.906;7.674;2023-02-01T11:25:47;24.02;;;5.30;;
11743;SDS011;5929;51.906;7.674;2023-02-01T11:28:15;20.67;;;4.70;;
11743;SDS011;5929;51.906;7.674;2023-02-01T11:30:43;22.02;;;5.00;;
11743;SDS011;5929;51.906;7.674;2023-02-01T11:33:13;15.82;;;4.05;;
11743;SDS011;5929;51.906;7.674;2023-02-01T11:35:44;17.80;;;5.10;;
11743;SDS011;5929;51.906;7.674;2023-02-01T11:38:17;25.83;;;4.95;;
11743;SDS011;5929;51.906;7.674;2023-02-01T11:40:47;19.98;;;4.18;;
11743;SDS011;5929;51.906;7.674;2023-02-01T11:43:16;28.40;;;4.68;;
11743;SDS011;5929;51.906;7.674;2023-02-01T11:45:55;19.02;;;5.05;;
11743;SDS011;5929;51.906;7.674;2023-02-01T11:48:24;20.33;;;5.25;;
11743;SDS011;5929;51.906;7.674;2023-02-01T11:50:55;25.13;;;5.53;;
11743;SDS011;5929;51.906;7.674;2023-02-01T11:53:55;23.00;;;5.82;;
11743;SDS011;5929;51.906;7.674;2023-02-01T11:56:35;25.77;;;5.53;;
11743;SDS011;5929;51.906;7.674;2023-02-01T11:59:09;29.50;;;6.82;;
11743;SDS011;5929;51.906;7.674;2023-02-01T12:01:48;27.17;;;6.43;;
11743;SDS011;5929;51.906;7.674;2023-02-01T12:07:27;22.65;;;6.50;;
11743;SDS011;5929;51.906;7.674;2023-02-01T12:10:03;23.02;;;6.60;;
11743;SDS011;5929;51.906;7.674;2023-02-01T12:12:43;23.30;;;5.75;;
11743;SDS011;5929;51.906;7.674;2023-02-01T12:15:18;17.98;;;5.97;;
11743;SDS011;5929;51.906;7.674;2023-02-01T12:18:01;32.45;;;7.00;;
11743;SDS011;5929;51.906;7.674;2023-02-01T12:20:59;22.08;;;6.10;;
11743;SDS011;5929;51.906;7.674;2023-02-01T12:23:49;27.17;;;6.68;;
11743;SDS011;5929;51.906;7.674;2023-02-01T12:29:29;23.83;;;6.75;;
11743;SDS011;5929;51.906;7.674;2023-02-01T12:32:13;23.02;;;5.85;;
11743;SDS011;5929;51.906;7.674;2023-02-01T12:34:59;26.02;;;7.00;;
11743;SDS011;5929;51.906;7.674;2023-02-01T12:37:41;19.92;;;5.93;;
11743;SDS011;5929;51.906;7.674;2023-02-01T12:40:24;26.27;;;6.85;;
11743;SDS011;5929;51.906;7.674;2023-02-01T12:43:09;29.55;;;6.57;;
11743;SDS011;5929;51.906;7.674;2023-02-01T12:45:42;28.65;;;8.20;;
11743;SDS011;5929;51.906;7.674;2023-02-01T12:48:18;36.65;;;8.55;;
11743;SDS011;5929;51.906;7.674;2023-02-01T12:50:53;26.63;;;8.10;;
11743;SDS011;5929;51.906;7.674;2023-02-01T12:53:25;33.58;;;7.50;;
11743;SDS011;5929;51.906;7.674;2023-02-01T12:56:13;30.70;;;8.60;;
11743;SDS011;5929;51.906;7.674;2023-02-01T12:58:45;40.20;;;8.02;;
11743;SDS011;5929;51.906;7.674;2023-02-01T13:01:16;28.75;;;8.43;;
11743;SDS011;5929;51.906;7.674;2023-02-01T13:03:50;29.55;;;8.43;;
11743;SDS011;5929;51.906;7.674;2023-02-01T13:06:22;28.85;;;7.75;;
11743;SDS011;5929;51.906;7.674;2023-02-01T13:08:53;28.15;;;7.53;;
11743;SDS011;5929;51.906;7.674;2023-02-01T13:11:29;26.98;;;6.70;;
11743;SDS011;5929;51.906;7.674;2023-02-01T13:13:59;29.88;;;7.47;;
11743;SDS011;5929;51.906;7.674;2023-02-01T13:16:30;29.63;;;6.75;;
11743;SDS011;5929;51.906;7.674;2023-02-01T13:19:06;30.63;;;8.25;;
11743;SDS011;5929;51.906;7.674;2023-02-01T13:21:42;33.15;;;8.10;;
11743;SDS011;5929;51.906;7.674;2023-02-01T13:24:22;24.08;;;6.72;;
11743;SDS011;5929;51.906;7.674;2023-02-01T13:26:58;33.88;;;8.25;;
11743;SDS011;5929;51.906;7.674;2023-02-01T13:29:25;29.48;;;7.60;;
11743;SDS011;5929;51.906;7.674;2023-02-01T13:31:58;29.38;;;7.25;;
11743;SDS011;5929;51.906;7.674;2023-02-01T13:34:56;26.85;;;7.20;;
11743;SDS011;5929;51.906;7.674;2023-02-01T13:37:51;33.50;;;7.40;;
11743;SDS011;5929;51.906;7.674;2023-02-01T13:40:36;28.00;;;8.10;;
11743;SDS011;5929;51.906;7.674;2023-02-01T13:43:11;28.88;;;7.20;;
11743;SDS011;5929;51.906;7.674;2023-02-01T13:45:45;29.42;;;6.55;;
11743;SDS011;5929;51.906;7.674;2023-02-01T13:48:18;28.52;;;7.10;;
11743;SDS011;5929;51.906;7.674;2023-02-01T13:50:53;27.02;;;6.13;;
11743;SDS011;5929;51.906;7.674;2023-02-01T13:53:23;24.88;;;5.55;;
11743;SDS011;5929;51.906;7.674;2023-02-01T13:55:55;23.88;;;6.20;;
11743;SDS011;5929;51.906;7.674;2023-02-01T13:58:36;25.58;;;5.85;;
11743;SDS011;5929;51.906;7.674;2023-02-01T14:04:00;24.52;;;5.55;;
11743;SDS011;5929;51.906;7.674;2023-02-01T14:06:42;28.15;;;5.78;;
11743;SDS011;5929;51.906;7.674;2023-02-01T14:09:13;23.02;;;4.88;;
11743;SDS011;5929;51.906;7.674;2023-02-01T14:11:48;16.30;;;4.07;;
11743;SDS011;5929;51.906;7.674;2023-02-01T14:23:14;22.48;;;4.75;;
11743;SDS011;5929;51.906;7.674;2023-02-01T14:25:44;17.92;;;4.60;;
11743;SDS011;5929;51.906;7.674;2023-02-01T14:28:12;20.10;;;4.68;;
11743;SDS011;5929;51.906;7.674;2023-02-01T14:30:51;21.60;;;4.90;;
11743;SDS011;5929;51.906;7.674;2023-02-01T14:33:21;16.20;;;4.10;;
11743;SDS011;5929;51.906;7.674;2023-02-01T14:36:05;16.98;;;3.95;;
11743;SDS011;5929;51.906;7.674;2023-02-01T14:38:35;16.10;;;4.07;;
11743;SDS011;5929;51.906;7.674;2023-02-01T14:41:11;20.20;;;4.93;;
11743;SDS011;5929;51.906;7.674;2023-02-01T14:43:50;15.20;;;3.83;;
11743;SDS011;5929;51.906;7.674;2023-02-01T14:46:19;18.13;;;4.78;;
11743;SDS011;5929;51.906;7.674;2023-02-01T14:49:06;23.02;;;4.65;;
11743;SDS011;5929;51.906;7.674;2023-02-01T14:51:33;18.98;;;5.15;;
11743;SDS011;5929;51.906;7.674;2023-02-01T14:54:00;21.60;;;4.32;;
11743;SDS011;5929;51.906;7.674;2023-02-01T14:56:27;24.92;;;5.85;;
11743;SDS011;5929;51.906;7.674;2023-02-01T14:58:55;38.67;;;17.17;;
11743;SDS011;5929;51.906;7.674;2023-02-01T15:01:26;21.60;;;5.32;;
11743;SDS011;5929;51.906;7.674;2023-02-01T15:03:55;26.23;;;6.70;;
11743;SDS011;5929;51.906;7.674;2023-02-01T15:06:29;23.25;;;5.85;;
11743;SDS011;5929;51.906;7.674;2023-02-01T15:09:03;24.77;;;5.40;;
11743;SDS011;5929;51.906;7.674;2023-02-01T15:11:44;16.40;;;4.32;;
11743;SDS011;5929;51.906;7.674;2023-02-01T15:14:20;20.27;;;5.22;;
11743;SDS011;5929;51.906;7.674;2023-02-01T15:16:51;27.95;;;5.28;;
11743;SDS011;5929;51.906;7.674;2023-02-01T15:19:22;25.40;;;5.72;;
11743;SDS011;5929;51.906;7.674;2023-02-01T15:21:50;21.67;;;4.95;;
11743;SDS011;5929;51.906;7.674;2023-02-01T15:24:20;27.55;;;6.18;;
11743;SDS011;5929;51.906;7.674;2023-02-01T15:26:52;25.70;;;5.03;;
11743;SDS011;5929;51.906;7.674;2023-02-01T15:29:20;26.13;;;6.80;;
11743;SDS011;5929;51.906;7.674;2023-02-01T15:31:52;20.33;;;4.70;;
11743;SDS011;5929;51.906;7.674;2023-02-01T15:34:19;27.50;;;5.25;;
11743;SDS011;5929;51.906;7.674;2023-02-01T15:36:47;17.80;;;4.18;;
11743;SDS011;5929;51.906;7.674;2023-02-01T15:39:18;19.13;;;5.03;;